Dhun — 3EXN7 — position and weather

sailwx.info

Track history (hours):
 
Tides and Currents Weather Stations Pressure Air Temp Water Temp Dewpoint Dewpoint Depression Visibility Wind Speed Wind Dir Waves Ship Positions

Dhun

Last reported at 2018-Jun-23 07:48 UTC. Time now 2018-Jun-25 09:30 UTC.
Position N 38°57' E 121°53'.

Length 255 m; draft 6.9 m.

Type: Cargo ship. MMSI: 357720000.

Date/timePositionNaut miles runAvg speedWind from/ knotsBaromVisibWave heightAir tempDewpointWater temp
2018-Jun-23 07:48N 38°57' E 121°53'1 4.8
2018-Jun-23 07:30N 38°56' E 121°54'510.3
2018-Jun-23 07:00N 38°51' E 121°57'3 5.6
2018-Jun-23 06:30N 38°50' E 122°01'1 0.1
2018-Jun-22 16:53N 38°49' E 121°59'27 1.1
2018-Jun-21 17:09N 38°25' E 122°14'212.9
2018-Jun-21 16:59N 38°23' E 122°15'612.2
2018-Jun-21 16:30N 38°18' E 122°18'1112.3
2018-Jun-21 15:39N 38°14' E 122°31'212.6
2018-Jun-21 15:31N 38°13' E 122°33'1212.4
2018-Jun-21 14:34N 38°09' E 122°47'111.6
2018-Jun-21 14:30N 38°09' E 122°48'612.2
2018-Jun-21 14:01N 38°06' E 122°55'711.9
2018-Jun-21 13:28N 38°03' E 123°02'  
Track history (hours):
 
Tides and Currents Weather Stations Pressure Air Temp Water Temp Dewpoint Dewpoint Depression Visibility Wind Speed Wind Dir Waves Ship Positions

Dhun

Last reported at 2018-Jun-23 07:48 UTC. Time now 2018-Jun-25 09:30 UTC.
Position N 38°57' E 121°53'.

Length 255 m; draft 6.9 m.

Type: Cargo ship. MMSI: 357720000.

Date/timePositionNaut miles runAvg speedWind from/ knotsBaromVisibWave heightAir tempDewpointWater temp
2018-Jun-23 07:48N 38°57' E 121°53'1 4.8
2018-Jun-23 07:30N 38°56' E 121°54'510.3
2018-Jun-23 07:00N 38°51' E 121°57'3 5.6
2018-Jun-23 06:30N 38°50' E 122°01'1 0.1
2018-Jun-22 16:53N 38°49' E 121°59'27 1.1
2018-Jun-21 17:09N 38°25' E 122°14'212.9
2018-Jun-21 16:59N 38°23' E 122°15'612.2
2018-Jun-21 16:30N 38°18' E 122°18'1112.3
2018-Jun-21 15:39N 38°14' E 122°31'212.6
2018-Jun-21 15:31N 38°13' E 122°33'1212.4
2018-Jun-21 14:34N 38°09' E 122°47'111.6
2018-Jun-21 14:30N 38°09' E 122°48'612.2
2018-Jun-21 14:01N 38°06' E 122°55'711.9
2018-Jun-21 13:28N 38°03' E 123°02'  

Dump ship's entire track history